Terminal Aerodrome Forecast
Issued by NWS

Home | Current Version | Previous Version | Graphics & Text | Print | Product List | Glossary On
Versions: 1 2 3 4 5 6 7 8 9 10 11 12 13 14 15 16 17 18 19 20 21 22 23 24 25 26
000
FTUS43 KABR 160300 AAB
TAFMBG
TAF AMD
KMBG 160352Z 1604/1624 08022G29KT P6SM VCSH BKN060 OVC090
     FM160700 05024G30KT 4SM -RASN OVC035
     FM160900 03020G27KT 1SM -SN OVC015
     FM161300 02022G29KT P6SM OVC025=

USA.gov is the U.S. government's official web portal to all federal, state and local government web resources and services.